Terminal Aerodrome Forecast
Issued by NWS

Home | Current Version | Previous Version | Text Only | Print | Product List | Glossary On
Versions: 1 2 3 4 5 6 7 8 9 10 11 12 13 14 15 16 17 18 19 20 21 22 23 24
000
FTUS44 KOUN 090520
TAFHBR
TAF
KHBR 090520Z 0906/1006 06005KT P6SM OVC060
     FM090700 11006KT P6SM BKN070
     FM091300 17013G19KT P6SM BKN060
     FM100300 15009KT P6SM OVC050=

USA.gov is the U.S. government's official web portal to all federal, state and local government web resources and services.